• Join FlightAware (Why Join?)
  • Login
  • US Flag 
07:25AM EDT


 

Airport Tracker/Info


-or-


 

Live Flight TrackerFlight Track Log ✈ SWA1421 ✈ 04-May-2013 ✈ KBWI - KFNT

Flight Track Log - Related Links

Times and Time Zones

All times are in EDT time to prevent confusion due to time zone crossing. See the SWA1421 flight status page for this flight to view local times or setup timezone preferences in your user account.

Time Position Orientation Groundspeed Altitude Reporting Facility
EDT Latitude Longitude Course Direction KTS MPH feet Rate Location/Type
04:28PM 39.1500 -76.7000 293° West 237 273 3,300  Level Potomac TRACON
04:29PM 39.1667 -76.7833 284° West 272 313 4,900 2,220 Climbing Potomac TRACON
04:31PM 39.2000 -76.8667 297° West 292 336 7,800 3,300 Climbing Potomac TRACON
04:33PM 39.2972 -77.1444 294° West 348 400 16,500 3,420 Climbing Washington Center
04:34PM 39.3811 -77.3434 293° West  Level FlightAware Approximate
04:34PM 39.3417 -77.2661 295° West 365 420 19,600  Level Washington Center
04:35PM 39.3875 -77.3986 294° West 389 448 22,500 2,820 Climbing Washington Center
04:36PM 39.4356 -77.5317 295° West 400 460 25,400 2,640 Climbing Washington Center
04:38PM 39.5247 -77.8139 292° West 417 480 30,300 2,640 Climbing Cleveland Center
04:39PM 39.5700 -77.9575 292° West 423 487 33,200 1,800 Climbing Cleveland Center
04:40PM 39.6083 -78.0933 290° West 423 487 34,000 360 Climbing Cleveland Center
04:41PM 39.6511 -78.2347 291° West 423 487 34,000  Level Cleveland Center
04:42PM 39.6933 -78.3736 292° West 423 487 34,000  Level Cleveland Center
04:43PM 39.7358 -78.5153 291° West 423 487 34,000  Level Cleveland Center
04:44PM 39.7756 -78.6544 290° West 423 487 34,000  Level Cleveland Center
04:45PM 39.8069 -78.7861 287° West 423 487 34,000  Level Cleveland Center
04:46PM 39.8486 -78.9256 291° West 423 487 34,000  Level Cleveland Center
04:47PM 39.8944 -79.0706 292° West 428 493 34,000  Level Cleveland Center
04:48PM 39.9339 -79.2131 290° West 428 493 34,000  Level Cleveland Center
04:49PM 39.9750 -79.3531 291° West 428 493 34,000  Level Cleveland Center
04:50PM 40.0389 -79.4822 303° West 428 493 34,000  Level Cleveland Center
04:51PM 40.1047 -79.6086 304° West 428 493 34,000  Level Cleveland Center
04:52PM 40.1703 -79.7381 304° West 428 493 34,000  Level Cleveland Center
04:53PM 40.2358 -79.8678 304° West 433 498 34,000  Level Cleveland Center
04:54PM 40.3011 -79.9950 304° West 433 498 34,000  Level Cleveland Center
04:55PM 40.3644 -80.1308 301° West 433 498 34,000  Level Cleveland Center
04:56PM 40.4294 -80.2586 304° West 433 498 34,000  Level Cleveland Center
04:57PM 40.5047 -80.4000 305° West 433 498 34,000  Level Cleveland Center
04:58PM 40.5694 -80.5311 303° West 433 498 34,000  Level Cleveland Center
04:59PM 40.6300 -80.6625 301° West 433 498 34,000  Level Cleveland Center
05:00PM 40.7006 -80.7914 306° West 428 493 34,000  Level Cleveland Center
05:01PM 40.7650 -80.9231 303° West 428 493 34,000  Level Cleveland Center
05:02PM 40.8269 -81.0522 302° West 433 498 34,000  Level Cleveland Center
05:03PM 40.8911 -81.1900 302° West 433 498 34,000  Level Cleveland Center
05:04PM 40.9550 -81.3228 303° West 433 498 34,000  Level Cleveland Center
05:05PM 41.0186 -81.4556 302° West 433 498 34,000  Level Cleveland Center
05:06PM 41.0781 -81.5775 303° West 433 498 34,000  Level Cleveland Center
05:07PM 41.1517 -81.7247 304° West 438 504 34,000  Level Cleveland Center
05:08PM 41.2444 -81.8231 321° Northwest 420 483 34,000  Level Cleveland Center
05:09PM 41.3628 -81.8722 343° North 420 483 34,000 -240 Level Cleveland Center
05:10PM 41.4747 -81.9300 339° North 430 495 33,600 -720 Descending Cleveland Center
05:11PM 41.5908 -81.9825 341° North 440 506 32,600 -1,020 Descending Cleveland Center
05:12PM 41.7028 -82.0350 341° North 440 506 31,600 -1,020 Descending Cleveland Center
05:13PM 41.8167 -82.0903 340° North 435 501 30,600 -900 Descending Cleveland Center
05:14PM 41.9139 -82.1372 340° North 421 484 29,800 -900 Descending Cleveland Center
05:15PM 42.0217 -82.1903 340° North 416 479 28,800 -1,020 Descending Cleveland Center
05:16PM 42.1292 -82.2433 340° North 416 479 27,800 -1,200 Descending Cleveland Center
05:17PM 42.2514 -82.3028 340° North 410 472 26,500 -1,200 Descending Cleveland Center
05:18PM 42.3547 -82.3533 340° North 410 472 25,500 -1,020 Descending Cleveland Center
05:19PM 42.4583 -82.4042 340° North 405 466 24,500 -1,020 Descending Cleveland Center
05:20PM 42.5597 -82.4519 341° North 400 460 23,500 -1,020 Descending Cleveland Center
05:21PM 42.6631 -82.5031 340° North 395 455 22,500 -1,020 Descending Cleveland Center
05:22PM 42.7622 -82.5542 339° North 384 442 21,500 -1,020 Descending Cleveland Center
05:23PM 42.8594 -82.6028 340° North 384 442 20,500 -1,320 Descending Cleveland Center
05:24PM 42.9414 -82.6761 327° Northwest 373 429 18,900 -1,800 Descending Cleveland Center
05:25PM 42.9533 -82.8100 277° West 323 372 17,000 -2,340 Descending Cleveland Center
05:26PM 42.9528 -82.9461 270° West 329 379 14,300 -2,760 Descending Cleveland Center
05:27PM 42.9561 -83.0881 272° West 354 407 11,500 -2,100 Descending Cleveland Center
05:28PM 42.9572 -83.2214 271° West 365 420 10,100 -1,140 Descending Cleveland Center
05:29PM 42.9611 -83.3267 273° West 338 389 9,300 -1,140 Descending Cleveland Center
05:30PM 42.9772 -83.4322 282° West 299 344 7,900 -1,500 Descending Cleveland Center
05:31PM 42.9997 -83.5383 286° West 284 327 6,400 -1,140 Descending Cleveland Center
05:32PM 43.0200 -83.6361 286° West 278 320 5,700 -900 Descending Cleveland Center
05:33PM 43.0425 -83.7336 288° West 260 299 4,700 -900 Descending Cleveland Center
05:34PM 43.0444 -83.8133 272° West 239 275 4,000 -720 Descending Cleveland Center
05:35PM 43.0219 -83.8747 243° Southwest 187 215 3,300 -720 Descending Cleveland Center
05:37PM 42.9654 -83.7437 150° Southeast  Level Estimated
05:44PM 42.9654 -83.7437 150° Southeast  Level Estimated